sensor_id;sensor_type;location;lat;lon;timestamp;P1;durP1;ratioP1;P2;durP2;ratioP2
9304;SDS011;4690;52.422;13.486;2023-04-01T00:04:24;5.83;;;5.23;;
9304;SDS011;4690;52.422;13.486;2023-04-01T00:06:50;7.30;;;5.13;;
9304;SDS011;4690;52.422;13.486;2023-04-01T00:09:16;7.13;;;4.40;;
9304;SDS011;4690;52.422;13.486;2023-04-01T00:11:43;5.83;;;4.17;;
9304;SDS011;4690;52.422;13.486;2023-04-01T00:14:10;4.53;;;4.00;;
9304;SDS011;4690;52.422;13.486;2023-04-01T00:16:36;6.27;;;4.27;;
9304;SDS011;4690;52.422;13.486;2023-04-01T00:19:02;6.50;;;5.17;;
9304;SDS011;4690;52.422;13.486;2023-04-01T00:21:28;8.10;;;5.20;;
9304;SDS011;4690;52.422;13.486;2023-04-01T00:23:55;9.23;;;5.57;;
9304;SDS011;4690;52.422;13.486;2023-04-01T00:26:21;7.57;;;4.37;;
9304;SDS011;4690;52.422;13.486;2023-04-01T00:28:47;11.80;;;7.80;;
9304;SDS011;4690;52.422;13.486;2023-04-01T00:31:13;8.87;;;5.93;;
9304;SDS011;4690;52.422;13.486;2023-04-01T00:33:40;7.97;;;5.53;;
9304;SDS011;4690;52.422;13.486;2023-04-01T00:36:13;6.27;;;4.20;;
9304;SDS011;4690;52.422;13.486;2023-04-01T00:38:42;5.20;;;4.10;;
9304;SDS011;4690;52.422;13.486;2023-04-01T00:41:08;4.90;;;3.40;;
9304;SDS011;4690;52.422;13.486;2023-04-01T00:43:40;8.33;;;5.80;;
9304;SDS011;4690;52.422;13.486;2023-04-01T00:46:08;23.30;;;12.13;;
9304;SDS011;4690;52.422;13.486;2023-04-01T00:48:35;34.80;;;17.47;;
9304;SDS011;4690;52.422;13.486;2023-04-01T00:51:07;9.83;;;7.07;;
9304;SDS011;4690;52.422;13.486;2023-04-01T00:53:40;7.43;;;4.70;;
9304;SDS011;4690;52.422;13.486;2023-04-01T00:56:13;6.73;;;3.87;;
9304;SDS011;4690;52.422;13.486;2023-04-01T00:58:59;8.40;;;4.30;;
9304;SDS011;4690;52.422;13.486;2023-04-01T01:01:36;8.50;;;5.00;;
9304;SDS011;4690;52.422;13.486;2023-04-01T01:04:02;20.07;;;9.97;;
9304;SDS011;4690;52.422;13.486;2023-04-01T01:12:47;21.47;;;11.43;;
9304;SDS011;4690;52.422;13.486;2023-04-01T01:15:41;66.47;;;30.57;;
9304;SDS011;4690;52.422;13.486;2023-04-01T01:21:03;70.60;;;30.40;;
9304;SDS011;4690;52.422;13.486;2023-04-01T01:32:42;15.93;;;9.13;;
9304;SDS011;4690;52.422;13.486;2023-04-01T01:35:53;7.27;;;4.43;;
9304;SDS011;4690;52.422;13.486;2023-04-01T01:38:23;8.13;;;4.80;;
9304;SDS011;4690;52.422;13.486;2023-04-01T01:40:54;5.67;;;3.53;;
9304;SDS011;4690;52.422;13.486;2023-04-01T01:43:28;7.60;;;3.73;;
9304;SDS011;4690;52.422;13.486;2023-04-01T01:46:04;7.77;;;4.53;;
9304;SDS011;4690;52.422;13.486;2023-04-01T01:48:36;9.67;;;4.40;;
9304;SDS011;4690;52.422;13.486;2023-04-01T01:51:06;5.77;;;3.60;;
9304;SDS011;4690;52.422;13.486;2023-04-01T01:53:32;4.20;;;3.27;;
9304;SDS011;4690;52.422;13.486;2023-04-01T01:55:58;6.60;;;4.03;;
9304;SDS011;4690;52.422;13.486;2023-04-01T01:58:34;6.97;;;4.60;;
9304;SDS011;4690;52.422;13.486;2023-04-01T02:01:10;5.47;;;4.07;;
9304;SDS011;4690;52.422;13.486;2023-04-01T02:03:41;7.87;;;4.13;;
9304;SDS011;4690;52.422;13.486;2023-04-01T02:06:10;7.17;;;3.70;;
9304;SDS011;4690;52.422;13.486;2023-04-01T02:11:17;8.57;;;4.10;;
9304;SDS011;4690;52.422;13.486;2023-04-01T02:13:54;7.47;;;3.43;;
9304;SDS011;4690;52.422;13.486;2023-04-01T02:16:33;5.57;;;3.93;;
9304;SDS011;4690;52.422;13.486;2023-04-01T02:19:07;4.27;;;3.57;;
9304;SDS011;4690;52.422;13.486;2023-04-01T02:21:37;6.70;;;3.83;;
9304;SDS011;4690;52.422;13.486;2023-04-01T02:24:06;5.70;;;4.20;;
9304;SDS011;4690;52.422;13.486;2023-04-01T02:26:37;6.13;;;3.83;;
9304;SDS011;4690;52.422;13.486;2023-04-01T02:29:04;7.07;;;4.30;;
9304;SDS011;4690;52.422;13.486;2023-04-01T02:31:33;4.70;;;3.70;;
9304;SDS011;4690;52.422;13.486;2023-04-01T02:33:59;6.17;;;3.73;;
9304;SDS011;4690;52.422;13.486;2023-04-01T02:36:27;5.17;;;3.90;;
9304;SDS011;4690;52.422;13.486;2023-04-01T02:38:53;3.87;;;3.33;;
9304;SDS011;4690;52.422;13.486;2023-04-01T02:41:24;5.67;;;3.63;;
9304;SDS011;4690;52.422;13.486;2023-04-01T02:43:50;6.73;;;4.30;;
9304;SDS011;4690;52.422;13.486;2023-04-01T02:46:16;5.60;;;3.70;;
9304;SDS011;4690;52.422;13.486;2023-04-01T02:48:41;5.27;;;4.00;;
9304;SDS011;4690;52.422;13.486;2023-04-01T02:51:08;11.40;;;4.50;;
9304;SDS011;4690;52.422;13.486;2023-04-01T02:53:34;3.67;;;2.80;;
9304;SDS011;4690;52.422;13.486;2023-04-01T02:56:00;5.50;;;3.60;;
9304;SDS011;4690;52.422;13.486;2023-04-01T02:58:25;4.43;;;3.33;;
9304;SDS011;4690;52.422;13.486;2023-04-01T03:00:51;6.97;;;4.30;;
9304;SDS011;4690;52.422;13.486;2023-04-01T03:03:17;3.80;;;3.30;;
9304;SDS011;4690;52.422;13.486;2023-04-01T03:05:43;4.43;;;3.33;;
9304;SDS011;4690;52.422;13.486;2023-04-01T03:08:08;7.30;;;4.10;;
9304;SDS011;4690;52.422;13.486;2023-04-01T03:10:35;6.50;;;3.67;;
9304;SDS011;4690;52.422;13.486;2023-04-01T03:13:01;6.47;;;3.80;;
9304;SDS011;4690;52.422;13.486;2023-04-01T03:15:27;7.03;;;3.90;;
9304;SDS011;4690;52.422;13.486;2023-04-01T03:17:52;4.60;;;3.93;;
9304;SDS011;4690;52.422;13.486;2023-04-01T03:20:18;6.93;;;4.17;;
9304;SDS011;4690;52.422;13.486;2023-04-01T03:22:44;7.20;;;4.10;;
9304;SDS011;4690;52.422;13.486;2023-04-01T03:25:10;6.97;;;4.33;;
9304;SDS011;4690;52.422;13.486;2023-04-01T03:27:36;6.17;;;4.23;;
9304;SDS011;4690;52.422;13.486;2023-04-01T03:30:03;28.57;;;10.97;;
9304;SDS011;4690;52.422;13.486;2023-04-01T03:32:30;15.07;;;8.87;;
9304;SDS011;4690;52.422;13.486;2023-04-01T03:34:56;31.60;;;16.00;;
9304;SDS011;4690;52.422;13.486;2023-04-01T03:37:22;23.93;;;14.40;;
9304;SDS011;4690;52.422;13.486;2023-04-01T03:39:48;19.17;;;11.83;;
9304;SDS011;4690;52.422;13.486;2023-04-01T03:42:14;14.93;;;10.33;;
9304;SDS011;4690;52.422;13.486;2023-04-01T03:44:40;14.57;;;8.10;;
9304;SDS011;4690;52.422;13.486;2023-04-01T03:47:06;10.43;;;7.43;;
9304;SDS011;4690;52.422;13.486;2023-04-01T03:49:34;8.33;;;5.83;;
9304;SDS011;4690;52.422;13.486;2023-04-01T03:52:00;8.50;;;5.50;;
9304;SDS011;4690;52.422;13.486;2023-04-01T03:54:25;8.27;;;4.93;;
9304;SDS011;4690;52.422;13.486;2023-04-01T03:56:51;8.77;;;5.43;;
9304;SDS011;4690;52.422;13.486;2023-04-01T03:59:17;8.00;;;5.60;;
9304;SDS011;4690;52.422;13.486;2023-04-01T04:01:43;10.27;;;5.77;;
9304;SDS011;4690;52.422;13.486;2023-04-01T04:04:11;5.53;;;4.67;;
9304;SDS011;4690;52.422;13.486;2023-04-01T04:06:40;7.57;;;5.00;;
9304;SDS011;4690;52.422;13.486;2023-04-01T04:09:06;6.63;;;5.30;;
9304;SDS011;4690;52.422;13.486;2023-04-01T04:11:32;13.67;;;6.53;;
9304;SDS011;4690;52.422;13.486;2023-04-01T04:13:58;7.23;;;5.03;;
9304;SDS011;4690;52.422;13.486;2023-04-01T04:16:24;6.33;;;5.23;;
9304;SDS011;4690;52.422;13.486;2023-04-01T04:18:50;5.23;;;4.77;;
9304;SDS011;4690;52.422;13.486;2023-04-01T04:21:16;8.13;;;6.20;;
9304;SDS011;4690;52.422;13.486;2023-04-01T04:23:42;11.30;;;6.63;;
9304;SDS011;4690;52.422;13.486;2023-04-01T04:26:09;5.90;;;5.23;;
9304;SDS011;4690;52.422;13.486;2023-04-01T04:28:38;9.30;;;6.10;;
9304;SDS011;4690;52.422;13.486;2023-04-01T04:31:04;10.07;;;5.53;;
9304;SDS011;4690;52.422;13.486;2023-04-01T04:33:31;7.13;;;5.70;;
9304;SDS011;4690;52.422;13.486;2023-04-01T04:35:58;7.17;;;5.70;;
9304;SDS011;4690;52.422;13.486;2023-04-01T04:38:25;9.17;;;6.00;;
9304;SDS011;4690;52.422;13.486;2023-04-01T04:40:51;5.67;;;5.10;;
9304;SDS011;4690;52.422;13.486;2023-04-01T04:43:17;6.93;;;5.73;;
9304;SDS011;4690;52.422;13.486;2023-04-01T04:45:43;7.43;;;5.23;;
9304;SDS011;4690;52.422;13.486;2023-04-01T04:48:10;9.02;;;6.40;;
9304;SDS011;4690;52.422;13.486;2023-04-01T04:50:41;12.03;;;6.13;;
9304;SDS011;4690;52.422;13.486;2023-04-01T04:53:14;8.10;;;5.17;;
9304;SDS011;4690;52.422;13.486;2023-04-01T04:55:47;8.93;;;5.33;;
9304;SDS011;4690;52.422;13.486;2023-04-01T04:58:15;6.73;;;4.73;;
9304;SDS011;4690;52.422;13.486;2023-04-01T05:00:41;9.90;;;5.77;;
9304;SDS011;4690;52.422;13.486;2023-04-01T05:03:08;12.93;;;6.17;;
9304;SDS011;4690;52.422;13.486;2023-04-01T05:05:35;14.20;;;6.47;;
9304;SDS011;4690;52.422;13.486;2023-04-01T05:08:01;8.63;;;5.10;;
9304;SDS011;4690;52.422;13.486;2023-04-01T05:10:28;7.63;;;4.93;;
9304;SDS011;4690;52.422;13.486;2023-04-01T05:12:53;8.10;;;5.37;;
9304;SDS011;4690;52.422;13.486;2023-04-01T05:15:20;17.13;;;7.80;;
9304;SDS011;4690;52.422;13.486;2023-04-01T05:17:46;9.77;;;6.10;;
9304;SDS011;4690;52.422;13.486;2023-04-01T05:20:13;9.37;;;5.43;;
9304;SDS011;4690;52.422;13.486;2023-04-01T05:22:40;6.23;;;5.00;;
9304;SDS011;4690;52.422;13.486;2023-04-01T05:25:06;10.87;;;5.87;;
9304;SDS011;4690;52.422;13.486;2023-04-01T05:27:32;9.57;;;5.40;;
9304;SDS011;4690;52.422;13.486;2023-04-01T05:29:58;8.30;;;5.67;;
9304;SDS011;4690;52.422;13.486;2023-04-01T05:32:24;11.07;;;6.90;;
9304;SDS011;4690;52.422;13.486;2023-04-01T05:34:50;9.53;;;5.60;;
9304;SDS011;4690;52.422;13.486;2023-04-01T05:37:17;7.23;;;5.40;;
9304;SDS011;4690;52.422;13.486;2023-04-01T05:39:43;10.30;;;5.87;;
9304;SDS011;4690;52.422;13.486;2023-04-01T05:42:09;6.13;;;5.10;;
9304;SDS011;4690;52.422;13.486;2023-04-01T05:44:35;8.83;;;5.97;;
9304;SDS011;4690;52.422;13.486;2023-04-01T05:47:02;13.67;;;6.93;;
9304;SDS011;4690;52.422;13.486;2023-04-01T05:49:29;14.20;;;6.83;;
9304;SDS011;4690;52.422;13.486;2023-04-01T05:51:55;8.23;;;5.30;;
9304;SDS011;4690;52.422;13.486;2023-04-01T05:54:22;11.23;;;5.87;;
9304;SDS011;4690;52.422;13.486;2023-04-01T05:56:48;8.40;;;6.00;;
9304;SDS011;4690;52.422;13.486;2023-04-01T05:59:14;8.37;;;5.60;;
9304;SDS011;4690;52.422;13.486;2023-04-01T06:01:40;8.13;;;5.57;;
9304;SDS011;4690;52.422;13.486;2023-04-01T06:04:06;7.87;;;5.00;;
9304;SDS011;4690;52.422;13.486;2023-04-01T06:06:38;11.70;;;5.63;;
9304;SDS011;4690;52.422;13.486;2023-04-01T06:09:15;8.87;;;5.70;;
9304;SDS011;4690;52.422;13.486;2023-04-01T06:14:58;6.53;;;4.40;;
9304;SDS011;4690;52.422;13.486;2023-04-01T06:33:48;10.60;;;5.27;;
9304;SDS011;4690;52.422;13.486;2023-04-01T06:42:22;13.03;;;5.47;;
9304;SDS011;4690;52.422;13.486;2023-04-01T06:45:30;12.37;;;4.93;;
9304;SDS011;4690;52.422;13.486;2023-04-01T06:54:18;13.27;;;5.03;;
9304;SDS011;4690;52.422;13.486;2023-04-01T06:56:57;15.80;;;5.37;;
9304;SDS011;4690;52.422;13.486;2023-04-01T07:00:01;7.93;;;4.50;;
9304;SDS011;4690;52.422;13.486;2023-04-01T07:02:39;10.00;;;4.80;;
9304;SDS011;4690;52.422;13.486;2023-04-01T07:05:13;8.47;;;4.67;;
9304;SDS011;4690;52.422;13.486;2023-04-01T07:07:45;8.33;;;4.60;;
9304;SDS011;4690;52.422;13.486;2023-04-01T07:13:32;15.37;;;5.03;;
9304;SDS011;4690;52.422;13.486;2023-04-01T07:16:36;8.20;;;4.80;;
9304;SDS011;4690;52.422;13.486;2023-04-01T07:22:36;6.13;;;3.80;;
9304;SDS011;4690;52.422;13.486;2023-04-01T07:27:42;6.60;;;3.87;;
9304;SDS011;4690;52.422;13.486;2023-04-01T07:30:20;11.03;;;4.40;;
9304;SDS011;4690;52.422;13.486;2023-04-01T07:44:58;8.70;;;3.60;;
9304;SDS011;4690;52.422;13.486;2023-04-01T07:47:21;4.80;;;3.10;;
9304;SDS011;4690;52.422;13.486;2023-04-01T07:56:04;6.37;;;3.47;;
9304;SDS011;4690;52.422;13.486;2023-04-01T08:02:01;5.47;;;3.00;;
9304;SDS011;4690;52.422;13.486;2023-04-01T08:13:25;6.33;;;3.03;;
9304;SDS011;4690;52.422;13.486;2023-04-01T08:22:02;5.05;;;2.85;;
9304;SDS011;4690;52.422;13.486;2023-04-01T08:24:44;7.10;;;3.00;;
9304;SDS011;4690;52.422;13.486;2023-04-01T08:27:24;4.30;;;2.78;;
9304;SDS011;4690;52.422;13.486;2023-04-01T08:30:24;2.38;;;2.15;;
9304;SDS011;4690;52.422;13.486;2023-04-01T08:32:56;4.53;;;2.70;;
9304;SDS011;4690;52.422;13.486;2023-04-01T08:35:31;4.97;;;2.70;;
9304;SDS011;4690;52.422;13.486;2023-04-01T08:38:27;5.38;;;2.70;;
9304;SDS011;4690;52.422;13.486;2023-04-01T08:41:03;3.75;;;2.13;;
9304;SDS011;4690;52.422;13.486;2023-04-01T08:56:42;5.10;;;2.40;;
9304;SDS011;4690;52.422;13.486;2023-04-01T09:09:30;5.67;;;4.90;;
9304;SDS011;4690;52.422;13.486;2023-04-01T09:29:12;11.90;;;9.40;;
9304;SDS011;4690;52.422;13.486;2023-04-01T09:37:51;13.53;;;9.30;;
9304;SDS011;4690;52.422;13.486;2023-04-01T09:40:47;10.13;;;8.70;;
9304;SDS011;4690;52.422;13.486;2023-04-01T09:46:48;11.27;;;9.57;;
9304;SDS011;4690;52.422;13.486;2023-04-01T09:58:26;11.93;;;9.07;;
9304;SDS011;4690;52.422;13.486;2023-04-01T10:51:27;10.80;;;9.30;;
9304;SDS011;4690;52.422;13.486;2023-04-01T10:54:36;10.77;;;9.87;;
9304;SDS011;4690;52.422;13.486;2023-04-01T11:19:46;10.07;;;9.10;;
9304;SDS011;4690;52.422;13.486;2023-04-01T11:31:29;8.83;;;8.07;;
9304;SDS011;4690;52.422;13.486;2023-04-01T11:43:14;6.27;;;5.67;;
9304;SDS011;4690;52.422;13.486;2023-04-01T11:46:25;7.13;;;6.43;;
9304;SDS011;4690;52.422;13.486;2023-04-01T11:49:22;6.87;;;6.27;;
9304;SDS011;4690;52.422;13.486;2023-04-01T11:58:30;6.30;;;5.70;;
9304;SDS011;4690;52.422;13.486;2023-04-01T12:10:04;5.50;;;5.00;;
9304;SDS011;4690;52.422;13.486;2023-04-01T12:21:58;6.07;;;5.47;;
9304;SDS011;4690;52.422;13.486;2023-04-01T12:30:51;4.97;;;4.57;;
9304;SDS011;4690;52.422;13.486;2023-04-01T12:39:27;7.00;;;5.10;;
9304;SDS011;4690;52.422;13.486;2023-04-01T12:42:34;5.70;;;5.20;;
9304;SDS011;4690;52.422;13.486;2023-04-01T12:45:33;6.60;;;5.10;;
9304;SDS011;4690;52.422;13.486;2023-04-01T13:14:09;5.00;;;4.60;;
9304;SDS011;4690;52.422;13.486;2023-04-01T13:23:44;6.13;;;5.63;;
9304;SDS011;4690;52.422;13.486;2023-04-01T13:26:13;5.97;;;5.47;;
9304;SDS011;4690;52.422;13.486;2023-04-01T13:34:59;6.20;;;5.23;;
9304;SDS011;4690;52.422;13.486;2023-04-01T13:43:43;6.27;;;4.90;;
9304;SDS011;4690;52.422;13.486;2023-04-01T13:49:12;6.40;;;5.63;;
9304;SDS011;4690;52.422;13.486;2023-04-01T14:00:10;10.47;;;9.63;;
9304;SDS011;4690;52.422;13.486;2023-04-01T14:33:10;9.90;;;8.90;;
9304;SDS011;4690;52.422;13.486;2023-04-01T14:51:16;10.07;;;9.17;;
9304;SDS011;4690;52.422;13.486;2023-04-01T14:54:03;10.47;;;9.47;;
9304;SDS011;4690;52.422;13.486;2023-04-01T14:56:48;9.33;;;8.43;;
9304;SDS011;4690;52.422;13.486;2023-04-01T14:59:27;9.60;;;8.70;;
9304;SDS011;4690;52.422;13.486;2023-04-01T15:05:10;9.33;;;8.43;;
9304;SDS011;4690;52.422;13.486;2023-04-01T15:08:25;9.17;;;8.40;;
9304;SDS011;4690;52.422;13.486;2023-04-01T15:19:49;9.30;;;8.40;;
9304;SDS011;4690;52.422;13.486;2023-04-01T15:31:31;9.10;;;8.30;;
9304;SDS011;4690;52.422;13.486;2023-04-01T15:39:28;9.40;;;8.40;;
9304;SDS011;4690;52.422;13.486;2023-04-01T15:50:54;8.63;;;7.70;;
9304;SDS011;4690;52.422;13.486;2023-04-01T15:53:56;10.63;;;8.80;;
9304;SDS011;4690;52.422;13.486;2023-04-01T16:17:27;6.60;;;6.00;;
9304;SDS011;4690;52.422;13.486;2023-04-01T16:23:24;7.50;;;6.37;;
9304;SDS011;4690;52.422;13.486;2023-04-01T16:28:57;8.90;;;7.33;;
9304;SDS011;4690;52.422;13.486;2023-04-01T16:34:43;9.83;;;8.87;;
9304;SDS011;4690;52.422;13.486;2023-04-01T16:37:20;9.80;;;8.80;;
9304;SDS011;4690;52.422;13.486;2023-04-01T16:45:43;11.43;;;10.33;;
9304;SDS011;4690;52.422;13.486;2023-04-01T16:48:28;11.70;;;10.60;;
9304;SDS011;4690;52.422;13.486;2023-04-01T16:51:17;13.60;;;12.23;;
9304;SDS011;4690;52.422;13.486;2023-04-01T16:53:47;13.20;;;12.00;;
9304;SDS011;4690;52.422;13.486;2023-04-01T16:57:17;13.80;;;12.47;;
9304;SDS011;4690;52.422;13.486;2023-04-01T17:02:10;12.97;;;11.73;;
9304;SDS011;4690;52.422;13.486;2023-04-01T17:16:00;12.20;;;11.10;;
9304;SDS011;4690;52.422;13.486;2023-04-01T17:31:01;12.90;;;11.70;;
9304;SDS011;4690;52.422;13.486;2023-04-01T18:11:52;11.70;;;10.50;;
9304;SDS011;4690;52.422;13.486;2023-04-01T18:14:42;11.07;;;10.07;;
9304;SDS011;4690;52.422;13.486;2023-04-01T18:20:31;12.10;;;11.00;;
9304;SDS011;4690;52.422;13.486;2023-04-01T18:23:28;11.50;;;10.30;;
9304;SDS011;4690;52.422;13.486;2023-04-01T18:26:09;10.77;;;9.77;;
9304;SDS011;4690;52.422;13.486;2023-04-01T18:28:52;10.43;;;9.50;;
9304;SDS011;4690;52.422;13.486;2023-04-01T18:31:31;10.83;;;9.80;;
9304;SDS011;4690;52.422;13.486;2023-04-01T18:46:07;10.13;;;9.10;;
9304;SDS011;4690;52.422;13.486;2023-04-01T18:57:40;7.53;;;6.83;;
9304;SDS011;4690;52.422;13.486;2023-04-01T19:00:25;7.63;;;6.43;;
9304;SDS011;4690;52.422;13.486;2023-04-01T19:03:01;7.30;;;6.60;;
9304;SDS011;4690;52.422;13.486;2023-04-01T19:05:56;7.37;;;6.67;;
9304;SDS011;4690;52.422;13.486;2023-04-01T19:08:39;7.60;;;6.63;;
9304;SDS011;4690;52.422;13.486;2023-04-01T19:19:48;9.17;;;7.03;;
9304;SDS011;4690;52.422;13.486;2023-04-01T19:25:54;8.40;;;7.53;;
9304;SDS011;4690;52.422;13.486;2023-04-01T19:34:25;8.43;;;7.50;;
9304;SDS011;4690;52.422;13.486;2023-04-01T19:37:26;9.83;;;7.50;;
9304;SDS011;4690;52.422;13.486;2023-04-01T19:40:16;8.73;;;7.57;;
9304;SDS011;4690;52.422;13.486;2023-04-01T19:45:39;10.17;;;7.83;;
9304;SDS011;4690;52.422;13.486;2023-04-01T19:51:34;12.93;;;8.37;;
9304;SDS011;4690;52.422;13.486;2023-04-01T19:54:28;9.93;;;8.93;;
9304;SDS011;4690;52.422;13.486;2023-04-01T20:00:24;10.73;;;8.83;;
9304;SDS011;4690;52.422;13.486;2023-04-01T20:03:13;13.13;;;9.70;;
9304;SDS011;4690;52.422;13.486;2023-04-01T20:06:23;12.77;;;10.20;;
9304;SDS011;4690;52.422;13.486;2023-04-01T20:09:08;11.20;;;9.67;;
9304;SDS011;4690;52.422;13.486;2023-04-01T20:12:00;12.60;;;10.57;;
9304;SDS011;4690;52.422;13.486;2023-04-01T20:14:59;12.93;;;10.27;;
9304;SDS011;4690;52.422;13.486;2023-04-01T20:17:38;14.17;;;10.83;;
9304;SDS011;4690;52.422;13.486;2023-04-01T20:25:25;14.60;;;10.73;;
9304;SDS011;4690;52.422;13.486;2023-04-01T20:28:01;14.70;;;11.73;;
9304;SDS011;4690;52.422;13.486;2023-04-01T20:30:59;13.77;;;11.67;;
9304;SDS011;4690;52.422;13.486;2023-04-01T20:34:02;15.90;;;11.80;;
9304;SDS011;4690;52.422;13.486;2023-04-01T21:17:38;16.43;;;11.00;;
9304;SDS011;4690;52.422;13.486;2023-04-01T21:42:33;13.93;;;11.47;;
9304;SDS011;4690;52.422;13.486;2023-04-01T22:13:42;13.30;;;9.67;;
9304;SDS011;4690;52.422;13.486;2023-04-01T22:27:38;16.07;;;10.73;;
9304;SDS011;4690;52.422;13.486;2023-04-01T22:36:26;14.43;;;10.67;;
9304;SDS011;4690;52.422;13.486;2023-04-01T22:47:30;11.53;;;9.00;;
9304;SDS011;4690;52.422;13.486;2023-04-01T22:50:27;12.83;;;8.67;;
9304;SDS011;4690;52.422;13.486;2023-04-01T22:55:32;11.47;;;8.60;;
9304;SDS011;4690;52.422;13.486;2023-04-01T22:58:18;10.53;;;8.30;;
9304;SDS011;4690;52.422;13.486;2023-04-01T23:00:58;9.13;;;8.23;;
9304;SDS011;4690;52.422;13.486;2023-04-01T23:03:33;11.23;;;8.17;;
9304;SDS011;4690;52.422;13.486;2023-04-01T23:06:05;9.97;;;7.87;;
9304;SDS011;4690;52.422;13.486;2023-04-01T23:16:57;12.47;;;7.83;;
9304;SDS011;4690;52.422;13.486;2023-04-01T23:22:21;9.00;;;7.33;;
9304;SDS011;4690;52.422;13.486;2023-04-01T23:25:23;10.00;;;7.40;;
9304;SDS011;4690;52.422;13.486;2023-04-01T23:31:20;8.80;;;7.03;;
9304;SDS011;4690;52.422;13.486;2023-04-01T23:36:47;8.57;;;6.30;;
9304;SDS011;4690;52.422;13.486;2023-04-01T23:39:34;9.37;;;6.50;;
9304;SDS011;4690;52.422;13.486;2023-04-01T23:42:11;7.73;;;6.40;;
9304;SDS011;4690;52.422;13.486;2023-04-01T23:44:51;8.97;;;6.30;;
9304;SDS011;4690;52.422;13.486;2023-04-01T23:47:24;7.10;;;6.00;;
9304;SDS011;4690;52.422;13.486;2023-04-01T23:50:09;8.50;;;6.67;;
9304;SDS011;4690;52.422;13.486;2023-04-01T23:52:46;6.73;;;5.70;;
9304;SDS011;4690;52.422;13.486;2023-04-01T23:55:33;6.83;;;5.53;;
